createdAt,value
2023-04-07T00:00:24.469Z,5.900
2023-04-07T00:01:26.383Z,6.099
2023-04-07T00:02:23.256Z,5.5
2023-04-07T00:03:23.421Z,6.699
2023-04-07T00:04:23.585Z,5.300
2023-04-07T00:06:23.664Z,5.5
2023-04-07T00:07:23.422Z,5.400
2023-04-07T00:08:23.406Z,5.599
2023-04-07T00:09:23.225Z,5.900
2023-04-07T00:10:23.768Z,4.800
2023-04-07T00:11:23.062Z,6.199
2023-04-07T00:12:23.705Z,5.099
2023-04-07T00:14:23.033Z,6.300
2023-04-07T00:15:23.399Z,5.300
2023-04-07T00:16:22.847Z,5.099
2023-04-07T00:17:23.429Z,4.800
2023-04-07T00:18:23.192Z,5.599
2023-04-07T00:19:22.922Z,4.699
2023-04-07T00:20:23.399Z,4.900
2023-04-07T00:21:23.363Z,5.800
2023-04-07T00:22:23.068Z,5.599
2023-04-07T00:23:23.476Z,5.099
2023-04-07T00:24:33.393Z,5.5
2023-04-07T00:25:22.863Z,5.300
2023-04-07T00:26:23.540Z,5.400
2023-04-07T00:27:23.602Z,5.5
2023-04-07T00:28:22.774Z,5
2023-04-07T00:29:23.719Z,4.800
2023-04-07T00:30:23.207Z,5
2023-04-07T00:31:23.667Z,4.5
2023-04-07T00:32:23.405Z,4.599
2023-04-07T00:33:23.029Z,4.900
2023-04-07T00:34:23.860Z,4.300
2023-04-07T00:35:23.575Z,3.700
2023-04-07T00:36:23.491Z,4.5
2023-04-07T00:37:23.756Z,5.199
2023-04-07T00:38:23.606Z,3.700
2023-04-07T00:39:22.939Z,3.900
2023-04-07T00:40:23.416Z,4.400
2023-04-07T00:41:23.476Z,4.099
2023-04-07T00:42:23.049Z,3.900
2023-04-07T00:43:23.162Z,3.5
2023-04-07T00:44:23.328Z,3.900
2023-04-07T00:45:23.798Z,4.5
2023-04-07T00:46:23.446Z,3.900
2023-04-07T00:47:23.323Z,4.199
2023-04-07T00:48:22.849Z,3.599
2023-04-07T00:49:23.243Z,3.099
2023-04-07T00:50:24.232Z,4
2023-04-07T00:51:22.760Z,4.5
2023-04-07T00:52:23.374Z,3.799
2023-04-07T00:53:23.575Z,4.5
2023-04-07T00:54:23.526Z,3.700
2023-04-07T00:55:23.210Z,4.199
2023-04-07T00:56:23.633Z,3.700
2023-04-07T00:57:23.069Z,3.5
2023-04-07T00:58:23.291Z,4.199
2023-04-07T00:59:23.833Z,3.200
2023-04-07T01:00:23.991Z,3.299
2023-04-07T01:01:24.007Z,4.599
2023-04-07T01:02:24.037Z,4.800
2023-04-07T01:03:23.231Z,5
2023-04-07T01:04:23.353Z,4.099
2023-04-07T01:05:23.386Z,3.799
2023-04-07T01:06:23.353Z,4.5
2023-04-07T01:07:23.224Z,3.799
2023-04-07T01:08:23.513Z,3.599
2023-04-07T01:09:23.420Z,4.099
2023-04-07T01:10:23.500Z,4.800
2023-04-07T01:11:23.757Z,4
2023-04-07T01:12:23.997Z,3.5
2023-04-07T01:13:24.153Z,3.299
2023-04-07T01:14:23.963Z,4.699
2023-04-07T01:15:23.880Z,4.199
2023-04-07T01:16:23.803Z,4.699
2023-04-07T01:17:23.571Z,5.599
2023-04-07T01:18:23.271Z,4.199
2023-04-07T01:19:23.401Z,4.599
2023-04-07T01:20:24.016Z,4.199
2023-04-07T01:21:23.532Z,4.599
2023-04-07T01:22:23.083Z,4.099
2023-04-07T01:23:23.356Z,4.199
2023-04-07T01:24:23.569Z,4.599
2023-04-07T01:25:23.219Z,4.5
2023-04-07T01:26:23.283Z,4.400
2023-04-07T01:27:24.036Z,4.699
2023-04-07T01:28:22.864Z,4.5
2023-04-07T01:30:24.077Z,4.599
2023-04-07T01:31:23.558Z,4.900
2023-04-07T01:32:23.401Z,4.800
2023-04-07T01:33:23.186Z,4.5
2023-04-07T01:34:23.457Z,5.800
2023-04-07T01:35:23.780Z,5.400
2023-04-07T01:36:23.002Z,5.900
2023-04-07T01:37:23.098Z,6.099
2023-04-07T01:38:23.940Z,5.800
2023-04-07T01:39:23.772Z,5.699
2023-04-07T01:40:23.189Z,6
2023-04-07T01:41:23.429Z,6.599
2023-04-07T01:42:23.089Z,6.900
2023-04-07T01:43:23.186Z,7.199
2023-04-07T01:45:23.716Z,6.900
2023-04-07T01:47:23.444Z,6
2023-04-07T01:48:23.115Z,5.900
2023-04-07T01:49:23.534Z,7
2023-04-07T01:50:23.358Z,6.900
2023-04-07T01:51:22.975Z,6.5
2023-04-07T01:52:23.280Z,6.199
2023-04-07T01:53:23.335Z,6.599
2023-04-07T01:54:24.148Z,7.099
2023-04-07T01:55:23.526Z,6.099
2023-04-07T01:56:23.367Z,7.699
2023-04-07T01:57:23.684Z,7
2023-04-07T01:58:22.684Z,9.600
2023-04-07T01:59:22.409Z,7.300
2023-04-07T02:00:24.192Z,7.400
2023-04-07T02:01:23.914Z,7.5
2023-04-07T02:02:24.072Z,7.900
2023-04-07T02:04:23.263Z,8
2023-04-07T02:05:23.517Z,7.099
2023-04-07T02:06:23.222Z,7.699
2023-04-07T02:08:23.840Z,8.199
2023-04-07T02:09:23.293Z,7.400
2023-04-07T02:10:22.953Z,8.399
2023-04-07T02:11:23.176Z,7.800
2023-04-07T02:12:23.180Z,7.5
2023-04-07T02:13:23.330Z,7.800
2023-04-07T02:14:23.583Z,6.699
2023-04-07T02:15:23.395Z,8
2023-04-07T02:16:31.449Z,7.900
2023-04-07T02:17:23.728Z,8.199
2023-04-07T02:18:23.186Z,7.5
2023-04-07T02:19:22.881Z,7.900
2023-04-07T02:20:23.172Z,6.599
2023-04-07T02:21:23.532Z,7.099
2023-04-07T02:22:37.899Z,8.300
2023-04-07T02:23:23.197Z,7.199
2023-04-07T02:24:23.313Z,7.099
2023-04-07T02:25:23.423Z,7.5
2023-04-07T02:26:24.060Z,7.099
2023-04-07T02:27:23.521Z,8
2023-04-07T02:28:22.805Z,8.199
2023-04-07T02:29:22.934Z,8.100
2023-04-07T02:30:23.820Z,6.900
2023-04-07T02:31:23.311Z,8.399
2023-04-07T02:32:23.229Z,8.899
2023-04-07T02:33:23.950Z,9.100
2023-04-07T02:34:23.329Z,8.300
2023-04-07T02:35:23.728Z,8.5
2023-04-07T02:36:23.182Z,8.399
2023-04-07T02:37:23.621Z,8.899
2023-04-07T02:38:23.402Z,8.199
2023-04-07T02:39:23.080Z,9.300
2023-04-07T02:40:23.398Z,8.899
2023-04-07T02:41:23.286Z,9
2023-04-07T02:42:23.593Z,8.600
2023-04-07T02:43:23.398Z,8.199
2023-04-07T02:44:23.750Z,9.199
2023-04-07T02:45:23.702Z,9.5
2023-04-07T02:46:23.747Z,10.30
2023-04-07T02:47:23.309Z,10.10
2023-04-07T02:48:23.294Z,10.5
2023-04-07T02:49:23.436Z,10.19
2023-04-07T02:50:22.980Z,10
2023-04-07T02:51:23.094Z,11.10
2023-04-07T02:52:23.616Z,10
2023-04-07T02:53:22.936Z,9.800
2023-04-07T02:54:23.255Z,9
2023-04-07T02:55:23.771Z,9.600
2023-04-07T02:56:22.964Z,10.30
2023-04-07T02:57:23.228Z,9.199
2023-04-07T02:58:23.375Z,8.699
2023-04-07T02:59:23.351Z,9.800
2023-04-07T03:00:24.058Z,10.80
2023-04-07T03:01:23.769Z,10.60
2023-04-07T03:02:23.274Z,10.19
2023-04-07T03:03:23.199Z,11.10
2023-04-07T03:04:23.209Z,10.39
2023-04-07T03:05:23.601Z,11.19
2023-04-07T03:06:23.177Z,9.899
2023-04-07T03:07:23.626Z,10.19
2023-04-07T03:08:23.241Z,10.89
2023-04-07T03:09:23.165Z,12.39
2023-04-07T03:10:23.543Z,12.5
2023-04-07T03:11:23.414Z,11.19
2023-04-07T03:12:23.762Z,11.5
2023-04-07T03:13:23.281Z,12.19
2023-04-07T03:14:23.038Z,10.5
2023-04-07T03:15:23.625Z,12.30
2023-04-07T03:16:22.915Z,12.19
2023-04-07T03:17:23.701Z,13.19
2023-04-07T03:18:23.019Z,11.5
2023-04-07T03:19:23.187Z,13.89
2023-04-07T03:20:22.927Z,12.60
2023-04-07T03:21:23.074Z,11.69
2023-04-07T03:22:23.952Z,12.89
2023-04-07T03:23:23.060Z,13.60
2023-04-07T03:24:23.609Z,13.69
2023-04-07T03:25:23.467Z,13.5
2023-04-07T03:26:23.277Z,13.10
2023-04-07T03:27:23.384Z,14.10
2023-04-07T03:28:23.577Z,13.80
2023-04-07T03:29:23.174Z,14.30
2023-04-07T03:30:23.839Z,15.89
2023-04-07T03:31:23.224Z,14.89
2023-04-07T03:33:23.489Z,15.80
2023-04-07T03:34:23.233Z,16.29
2023-04-07T03:35:22.764Z,16.10
2023-04-07T03:36:23.331Z,16.39
2023-04-07T03:37:23.723Z,14.89
2023-04-07T03:38:23.270Z,15.5
2023-04-07T03:39:24.035Z,14.89
2023-04-07T03:41:27.594Z,15.69
2023-04-07T03:42:23.255Z,17.5
2023-04-07T03:43:22.860Z,15.89
2023-04-07T03:44:23.274Z,17.5
2023-04-07T03:45:23.643Z,16.29
2023-04-07T03:46:23.440Z,16.70
2023-04-07T03:47:23.378Z,17.79
2023-04-07T03:48:23.160Z,18.29
2023-04-07T03:49:23.604Z,19.70
2023-04-07T03:50:23.455Z,17.89
2023-04-07T03:51:23.466Z,18.39
2023-04-07T03:52:23.542Z,18.20
2023-04-07T03:53:23.263Z,17.79
2023-04-07T03:54:24.694Z,19.60
2023-04-07T03:55:23.330Z,16.39
2023-04-07T03:56:24.043Z,17.70
2023-04-07T03:57:23.346Z,18.39
2023-04-07T03:58:23.382Z,20.10
2023-04-07T03:59:23.818Z,18
2023-04-07T04:00:24.407Z,19.10
2023-04-07T04:01:23.190Z,18.29
2023-04-07T04:02:23.397Z,18.79
2023-04-07T04:03:24.075Z,18.70
2023-04-07T04:04:23.501Z,19.29
2023-04-07T04:05:23.502Z,20.60
2023-04-07T04:06:23.091Z,20
2023-04-07T04:07:23.609Z,19.70
2023-04-07T04:08:22.998Z,18
2023-04-07T04:09:23.316Z,18.10
2023-04-07T04:11:23.132Z,17.79
2023-04-07T04:12:23.611Z,19.39
2023-04-07T04:13:22.923Z,18.10
2023-04-07T04:14:23.158Z,17.70
2023-04-07T04:15:23.906Z,18.79
2023-04-07T04:16:23.633Z,18.70
2023-04-07T04:17:23.270Z,20.10
2023-04-07T04:18:23.321Z,17.10
2023-04-07T04:19:23.741Z,19.20
2023-04-07T04:20:23.236Z,19.29
2023-04-07T04:21:23.488Z,17.60
2023-04-07T04:22:23.034Z,18.70
2023-04-07T04:23:23.415Z,18.39
2023-04-07T04:25:24.195Z,18.79
2023-04-07T04:26:23.369Z,19.5
2023-04-07T04:27:23.390Z,19.89
2023-04-07T04:28:23.311Z,18.89
2023-04-07T04:29:22.730Z,19.89
2023-04-07T04:31:23.253Z,19.39
2023-04-07T04:32:22.912Z,19.5
2023-04-07T04:33:23.553Z,19.70
2023-04-07T04:34:23.384Z,21.10
2023-04-07T04:35:23.745Z,20.5
2023-04-07T04:36:23.126Z,18.89
2023-04-07T04:37:23.523Z,20
2023-04-07T04:38:23.249Z,20.79
2023-04-07T04:39:23.341Z,22.10
2023-04-07T04:40:23.989Z,19.89
2023-04-07T04:41:23.483Z,17.79
2023-04-07T04:42:23.220Z,19.29
2023-04-07T04:43:23.644Z,19
2023-04-07T04:44:23.248Z,19.29
2023-04-07T04:45:23.883Z,19.20
2023-04-07T04:46:24.112Z,21.29
2023-04-07T04:47:23.268Z,19.10
2023-04-07T04:49:23.375Z,17
2023-04-07T04:50:23.272Z,20.89
2023-04-07T04:51:24.343Z,18.20
2023-04-07T04:52:23.177Z,18.70
2023-04-07T04:53:23.726Z,19.20
2023-04-07T04:54:23.536Z,20.70
2023-04-07T04:55:23.352Z,23
2023-04-07T04:56:23.291Z,23.79
2023-04-07T04:57:23.699Z,25.20
2023-04-07T04:58:23.118Z,24.79
2023-04-07T04:59:23.616Z,24.5
2023-04-07T05:00:24.448Z,25.10
2023-04-07T05:01:23.283Z,26.10
2023-04-07T05:02:23.114Z,26.60
2023-04-07T05:03:23.336Z,28
2023-04-07T05:05:23.444Z,26.39
2023-04-07T05:06:23.396Z,29
2023-04-07T05:07:23.485Z,27.70
2023-04-07T05:08:23.352Z,27.60
2023-04-07T05:09:24.224Z,28.39
2023-04-07T05:10:23.535Z,28.20
2023-04-07T05:11:23.247Z,25.5
2023-04-07T05:12:23.581Z,26.20
2023-04-07T05:13:23.147Z,29.60
2023-04-07T05:14:23.439Z,27.5
2023-04-07T05:15:23.622Z,27.70
2023-04-07T05:16:23.561Z,28.10
2023-04-07T05:17:24.380Z,27.20
2023-04-07T05:18:23.943Z,26.5
2023-04-07T05:19:23.636Z,26.89
2023-04-07T05:20:23.296Z,29.5
2023-04-07T05:21:23.168Z,26.39
2023-04-07T05:23:22.944Z,28.5
2023-04-07T05:24:23.760Z,29.5
2023-04-07T05:25:23.552Z,27.60
2023-04-07T05:26:23.383Z,28.89
2023-04-07T05:27:23.258Z,26.20
2023-04-07T05:28:24.048Z,28.79
2023-04-07T05:29:23.365Z,27.89
2023-04-07T05:30:23.910Z,28.29
2023-04-07T05:31:23.206Z,27.39
2023-04-07T05:32:23.742Z,29
2023-04-07T05:33:23.813Z,31.10
2023-04-07T05:34:23.559Z,26.79
2023-04-07T05:35:23.559Z,28.5
2023-04-07T05:36:23.051Z,27.89
2023-04-07T05:37:23.684Z,27.10
2023-04-07T05:38:23.645Z,30.20
2023-04-07T05:39:23.553Z,28.60
2023-04-07T05:40:24.159Z,28.79
2023-04-07T05:41:23.323Z,28.10
2023-04-07T05:42:23.316Z,27.5
2023-04-07T05:43:23.306Z,28.5
2023-04-07T05:44:22.831Z,27.5
2023-04-07T05:45:23.973Z,27.29
2023-04-07T05:46:24.437Z,29
2023-04-07T05:47:23.260Z,26.89
2023-04-07T05:48:23.638Z,27.60
2023-04-07T05:49:23.286Z,27.79
2023-04-07T05:50:23.522Z,24.79
2023-04-07T05:51:23.123Z,25.5
2023-04-07T05:52:23.588Z,27.79
2023-04-07T05:53:23.410Z,28.29
2023-04-07T05:54:23.375Z,26.29
2023-04-07T05:55:23.713Z,27.70
2023-04-07T05:56:23.665Z,24.5
2023-04-07T05:57:23.643Z,28.10
2023-04-07T05:58:23.158Z,28.29
2023-04-07T05:59:23.399Z,26.10
2023-04-07T06:00:23.809Z,26
2023-04-07T06:01:24.071Z,25.60
2023-04-07T06:02:23.905Z,28.79
2023-04-07T06:03:23.458Z,27.20
2023-04-07T06:04:23.233Z,26
2023-04-07T06:05:23.830Z,27.29
2023-04-07T06:06:23.897Z,26.5
2023-04-07T06:07:23.739Z,25.79
2023-04-07T06:08:23.989Z,26.10
2023-04-07T06:09:23.054Z,25.5
2023-04-07T06:10:24.172Z,25.60
2023-04-07T06:11:23.959Z,26
2023-04-07T06:12:23.400Z,26.5
2023-04-07T06:13:23.494Z,26.10
2023-04-07T06:14:23.382Z,25.70
2023-04-07T06:15:23.340Z,25.29
2023-04-07T06:17:23.873Z,25.39
2023-04-07T06:18:23.932Z,25
2023-04-07T06:19:23.777Z,24.60
2023-04-07T06:20:23.585Z,25.5
2023-04-07T06:21:23.705Z,24.60
2023-04-07T06:22:23.477Z,23.79
2023-04-07T06:23:23.784Z,26
2023-04-07T06:24:23.349Z,24.39
2023-04-07T06:25:24.407Z,25
2023-04-07T06:26:23.874Z,24.5
2023-04-07T06:27:24.240Z,25.10
2023-04-07T06:28:23.122Z,24.60
2023-04-07T06:29:23.498Z,25.89
2023-04-07T06:30:24.997Z,23.79
2023-04-07T06:31:23.835Z,22.5
2023-04-07T06:32:23.981Z,25
2023-04-07T06:33:23.224Z,22.60
2023-04-07T06:34:23.910Z,24.20
2023-04-07T06:35:24.560Z,23.79
2023-04-07T06:36:23.709Z,24.20
2023-04-07T06:37:24.178Z,22.20
2023-04-07T06:38:24.041Z,22.39
2023-04-07T06:39:24.182Z,24.39
2023-04-07T06:40:23.685Z,24.29
2023-04-07T06:41:23.632Z,23.20
2023-04-07T06:42:23.800Z,24.39
2023-04-07T06:43:23.596Z,24.89
2023-04-07T06:44:23.605Z,24.5
2023-04-07T06:45:23.634Z,23.5
2023-04-07T06:46:23.484Z,22.29
2023-04-07T06:47:23.097Z,22.89
2023-04-07T06:48:23.875Z,21.5
2023-04-07T06:49:23.995Z,23.10
2023-04-07T06:50:23.598Z,20.5
2023-04-07T06:51:23.971Z,20.89
2023-04-07T06:52:24.100Z,21.60
2023-04-07T06:53:23.806Z,20.70
2023-04-07T06:54:29.039Z,22.20
2023-04-07T06:55:23.789Z,20.89
2023-04-07T06:56:23.798Z,21.89
2023-04-07T06:57:24.592Z,22.10
2023-04-07T06:58:28.405Z,21.5
2023-04-07T07:00:24.846Z,21.70
2023-04-07T07:01:24.419Z,21.89
2023-04-07T07:02:24.599Z,21
2023-04-07T07:03:23.917Z,21.10
2023-04-07T07:04:23.531Z,20.29
2023-04-07T07:05:23.361Z,20.5
2023-04-07T07:06:23.336Z,20.10
2023-04-07T07:07:24.177Z,20.20
2023-04-07T07:08:31.334Z,20.60
2023-04-07T07:09:23.750Z,21.60
2023-04-07T07:10:37.217Z,21.79
2023-04-07T07:11:23.585Z,21.20
2023-04-07T07:12:37.536Z,21.89
2023-04-07T07:14:37.605Z,20.70
2023-04-07T07:15:24.205Z,21.5
2023-04-07T07:16:23.753Z,20.89
2023-04-07T07:17:23.496Z,20.60
2023-04-07T07:18:37.913Z,21.89
2023-04-07T07:19:23.710Z,19.89
2023-04-07T07:20:24.071Z,18.5
2023-04-07T07:21:23.114Z,19.89
2023-04-07T07:22:23.926Z,19.70
2023-04-07T07:23:23.312Z,18.79
2023-04-07T07:24:23.385Z,20.29
2023-04-07T07:25:24.136Z,19.89
2023-04-07T07:26:43.566Z,19.70
2023-04-07T07:27:23.747Z,18.5
2023-04-07T07:28:23.585Z,18.39
2023-04-07T07:29:23.618Z,17.10
2023-04-07T07:30:23.820Z,19.79
2023-04-07T07:31:23.035Z,20
2023-04-07T07:32:23.543Z,19.79
2023-04-07T07:33:23.131Z,21
2023-04-07T07:34:23.793Z,18.89
2023-04-07T07:35:23.870Z,20.29
2023-04-07T07:36:23.782Z,17.39
2023-04-07T07:37:23.287Z,21.29
2023-04-07T07:38:23.739Z,19.5
2023-04-07T07:39:23.791Z,19
2023-04-07T07:40:23.735Z,19.39
2023-04-07T07:41:23.722Z,17.20
2023-04-07T07:42:23.604Z,18.79
2023-04-07T07:43:23.977Z,20.20
2023-04-07T07:44:23.748Z,20.79
2023-04-07T07:45:23.850Z,21.79
2023-04-07T07:46:23.944Z,19.79
2023-04-07T07:47:23.477Z,21.10
2023-04-07T07:48:23.975Z,19.39
2023-04-07T07:49:23.590Z,20
2023-04-07T07:50:23.463Z,20.70
2023-04-07T07:51:23.483Z,19.60
2023-04-07T07:52:23.556Z,19
2023-04-07T07:53:23.461Z,18.89
2023-04-07T07:54:23.416Z,18.20
2023-04-07T07:55:23.504Z,17.39
2023-04-07T07:56:23.685Z,17.89
2023-04-07T07:57:23.754Z,15.80
2023-04-07T07:58:23.337Z,18.5
2023-04-07T07:59:23.832Z,18.70
2023-04-07T08:00:24.267Z,17.10
2023-04-07T08:01:23.384Z,17.70
2023-04-07T08:02:23.498Z,16.10
2023-04-07T08:03:23.227Z,16.20
2023-04-07T08:04:23.405Z,14.10
2023-04-07T08:05:23.304Z,16.10
2023-04-07T08:06:23.866Z,14.5
2023-04-07T08:07:23.753Z,16.29
2023-04-07T08:08:23.213Z,14.19
2023-04-07T08:10:23.458Z,14.60
2023-04-07T08:11:23.099Z,14.39
2023-04-07T08:12:23.536Z,12.69
2023-04-07T08:13:23.292Z,12.19
2023-04-07T08:14:23.663Z,11.80
2023-04-07T08:15:23.077Z,12.80
2023-04-07T08:16:23.232Z,12.89
2023-04-07T08:17:23.900Z,10.5
2023-04-07T08:18:23.687Z,10.69
2023-04-07T08:19:22.973Z,11.39
2023-04-07T08:20:23.377Z,11.30
2023-04-07T08:21:23.398Z,11
2023-04-07T08:22:23.000Z,10.80
2023-04-07T08:23:23.638Z,10.60
2023-04-07T08:24:23.277Z,11
2023-04-07T08:25:23.868Z,11.60
2023-04-07T08:26:23.405Z,9.800
2023-04-07T08:27:23.628Z,10.10
2023-04-07T08:28:23.282Z,9.300
2023-04-07T08:29:23.649Z,10.69
2023-04-07T08:30:23.845Z,9.300
2023-04-07T08:31:23.643Z,11.10
2023-04-07T08:32:24.708Z,10
2023-04-07T08:33:23.314Z,8.899
2023-04-07T08:34:24.118Z,8.399
2023-04-07T08:36:23.665Z,11.19
2023-04-07T08:37:23.484Z,9.199
2023-04-07T08:38:23.280Z,8.800
2023-04-07T08:39:23.206Z,10.19
2023-04-07T08:40:23.935Z,10.10
2023-04-07T08:41:23.730Z,9.199
2023-04-07T08:42:24.009Z,8.300
2023-04-07T08:43:23.339Z,9.399
2023-04-07T08:44:23.416Z,9.5
2023-04-07T08:45:23.903Z,8
2023-04-07T08:46:23.817Z,8.800
2023-04-07T08:47:23.673Z,9.600
2023-04-07T08:48:23.676Z,8.399
2023-04-07T08:49:23.051Z,9.899
2023-04-07T08:50:23.745Z,8.600
2023-04-07T08:51:22.877Z,10.19
2023-04-07T08:52:23.822Z,8.699
2023-04-07T08:53:23.201Z,8.300
2023-04-07T08:54:23.920Z,9
2023-04-07T08:55:23.162Z,8.5
2023-04-07T08:56:23.734Z,7.699
2023-04-07T08:58:23.732Z,7.900
2023-04-07T08:59:24.351Z,8.300
2023-04-07T09:00:24.903Z,7.599
2023-04-07T09:01:24.446Z,7.099
2023-04-07T09:02:23.600Z,7.400
2023-04-07T09:03:24.069Z,6.900
2023-04-07T09:04:23.193Z,7.199
2023-04-07T09:05:23.245Z,10
2023-04-07T09:06:23.064Z,8.699
2023-04-07T09:07:23.485Z,8.800
2023-04-07T09:08:22.964Z,9
2023-04-07T09:09:23.704Z,8.5
2023-04-07T09:10:23.635Z,8.699
2023-04-07T09:11:23.069Z,9.199
2023-04-07T09:12:23.885Z,9.399
2023-04-07T09:13:23.515Z,9
2023-04-07T09:14:23.384Z,10
2023-04-07T09:15:24.158Z,8.5
2023-04-07T09:16:23.620Z,10.80
2023-04-07T09:17:29.116Z,9.199
2023-04-07T09:18:23.838Z,9.600
2023-04-07T09:19:28.252Z,9.800
2023-04-07T09:21:23.340Z,9.399
2023-04-07T09:22:23.684Z,8.899
2023-04-07T09:23:23.717Z,9.100
2023-04-07T09:24:23.544Z,9.199
2023-04-07T09:25:23.923Z,8.800
2023-04-07T09:26:23.126Z,10.10
2023-04-07T09:27:23.596Z,9.100
2023-04-07T09:28:23.077Z,10
2023-04-07T09:29:23.528Z,8.800
2023-04-07T09:30:23.849Z,8.600
2023-04-07T09:31:23.764Z,9.699
2023-04-07T09:32:23.568Z,8.5
2023-04-07T09:33:23.330Z,8.300
2023-04-07T09:34:23.320Z,7.599
2023-04-07T09:35:23.422Z,8.199
2023-04-07T09:37:37.135Z,9.600
2023-04-07T09:38:23.545Z,9.199
2023-04-07T09:39:37.776Z,8.300
2023-04-07T09:40:23.333Z,8.399
2023-04-07T09:41:23.179Z,9.300
2023-04-07T09:42:23.403Z,7.900
2023-04-07T09:43:23.322Z,7.599
2023-04-07T09:44:23.651Z,9.600
2023-04-07T09:45:33.835Z,8.300
2023-04-07T09:46:25.605Z,9.100
2023-04-07T09:47:37.119Z,8.600
2023-04-07T09:49:23.643Z,8.800
2023-04-07T09:50:23.824Z,9
2023-04-07T09:51:23.398Z,8.600
2023-04-07T09:52:23.175Z,8.300
2023-04-07T09:53:23.773Z,7.699
2023-04-07T09:54:23.630Z,8.199
2023-04-07T09:55:23.647Z,7.300
2023-04-07T09:56:23.671Z,7.699
2023-04-07T09:57:23.767Z,7.5
2023-04-07T09:58:23.610Z,7.599
2023-04-07T09:59:23.693Z,8.5
2023-04-07T10:00:24.633Z,7.699
2023-04-07T10:02:23.299Z,9.100
2023-04-07T10:03:23.378Z,7.099
2023-04-07T10:04:23.018Z,8.600
2023-04-07T10:05:23.661Z,9.600
2023-04-07T10:06:23.241Z,9.199
2023-04-07T10:07:23.953Z,7.5
2023-04-07T10:08:23.338Z,8.800
2023-04-07T10:09:23.284Z,8.100
2023-04-07T10:10:23.976Z,9.100
2023-04-07T10:11:24.020Z,9.600
2023-04-07T10:12:23.529Z,9.399
2023-04-07T10:13:23.607Z,10
2023-04-07T10:14:23.621Z,10.39
2023-04-07T10:15:24.091Z,8.699
2023-04-07T10:16:23.880Z,8.899
2023-04-07T10:17:23.889Z,9.399
2023-04-07T10:18:24.385Z,8.5
2023-04-07T10:19:23.418Z,9.300
2023-04-07T10:20:23.438Z,8.899
2023-04-07T10:21:23.477Z,8.699
2023-04-07T10:22:23.734Z,7.699
2023-04-07T10:23:23.284Z,8.5
2023-04-07T10:24:23.522Z,7.900
2023-04-07T10:25:23.263Z,10.5
2023-04-07T10:26:23.484Z,9.5
2023-04-07T10:27:23.646Z,8.600
2023-04-07T10:28:23.340Z,9.300
2023-04-07T10:29:23.360Z,8.800
2023-04-07T10:31:23.581Z,9.800
2023-04-07T10:32:23.946Z,7.599
2023-04-07T10:34:23.342Z,8.800
2023-04-07T10:35:23.792Z,9.399
2023-04-07T10:36:23.668Z,10.39
2023-04-07T10:37:23.674Z,10.30
2023-04-07T10:38:23.688Z,10.39
2023-04-07T10:40:23.571Z,8.699
2023-04-07T10:41:24.165Z,10.10
2023-04-07T10:43:23.258Z,9.5
2023-04-07T10:44:23.852Z,9.399
2023-04-07T10:45:23.944Z,10.19
2023-04-07T10:46:23.900Z,11.60
2023-04-07T10:47:23.581Z,11.89
2023-04-07T10:48:22.898Z,11.69
2023-04-07T10:49:23.212Z,10.80
2023-04-07T10:50:24.046Z,10.10
2023-04-07T10:51:24.207Z,10
2023-04-07T10:52:24.067Z,16.20
2023-04-07T10:53:23.739Z,9.800
2023-04-07T10:54:23.784Z,9.399
2023-04-07T10:55:23.783Z,8.800
2023-04-07T10:56:24.250Z,8.699
2023-04-07T10:57:23.603Z,11.39
2023-04-07T10:58:24.163Z,9.5
2023-04-07T10:59:23.519Z,9.199
2023-04-07T11:00:24.743Z,9.600
2023-04-07T11:01:24.062Z,8.899
2023-04-07T11:02:23.587Z,9
2023-04-07T11:03:23.668Z,9.199
2023-04-07T11:04:23.935Z,9.800
2023-04-07T11:05:23.938Z,8.399
2023-04-07T11:06:23.930Z,8.5
2023-04-07T11:07:23.842Z,9.800
2023-04-07T11:08:23.952Z,8.600
2023-04-07T11:09:23.911Z,9.100
2023-04-07T11:10:23.991Z,9.399
2023-04-07T11:11:23.883Z,9.899
2023-04-07T11:12:23.621Z,9.399
2023-04-07T11:13:23.660Z,8.699
2023-04-07T11:14:23.857Z,9.199
2023-04-07T11:15:23.983Z,8.899
2023-04-07T11:16:23.284Z,8.399
2023-04-07T11:17:23.530Z,9.699
2023-04-07T11:18:23.742Z,8.800
2023-04-07T11:19:24.009Z,8.100
2023-04-07T11:20:24.532Z,8.5
2023-04-07T11:21:23.210Z,9.800
2023-04-07T11:22:29.931Z,8.899
2023-04-07T11:24:23.248Z,8
2023-04-07T11:25:23.778Z,8.800
2023-04-07T11:26:23.244Z,9.199
2023-04-07T11:28:23.595Z,8.899
2023-04-07T11:29:23.649Z,10.10
2023-04-07T11:30:24.073Z,9.5
2023-04-07T11:31:23.148Z,8.199
2023-04-07T11:32:25.527Z,10.69
2023-04-07T11:33:23.682Z,9.5
2023-04-07T11:34:23.637Z,10.60
2023-04-07T11:35:23.297Z,10.10
2023-04-07T11:36:23.515Z,9.600
2023-04-07T11:37:23.494Z,9.199
2023-04-07T11:38:23.820Z,8.199
2023-04-07T11:39:23.495Z,8.800
2023-04-07T11:40:23.751Z,9.600
2023-04-07T11:41:23.838Z,10.80
2023-04-07T11:42:23.775Z,10.10
2023-04-07T11:43:23.534Z,9.899
2023-04-07T11:44:28.425Z,11
2023-04-07T11:45:23.932Z,10.80
2023-04-07T11:46:28.542Z,9.899
2023-04-07T11:47:23.721Z,9.100
2023-04-07T11:48:23.759Z,10.19
2023-04-07T11:49:23.509Z,9.899
2023-04-07T11:50:23.428Z,10.19
2023-04-07T11:51:23.866Z,9
2023-04-07T11:53:23.381Z,8.699
2023-04-07T11:54:23.196Z,8.800
2023-04-07T11:55:23.643Z,8.199
2023-04-07T11:56:23.700Z,8.899
2023-04-07T11:57:23.585Z,9.199
2023-04-07T11:58:23.394Z,9
2023-04-07T11:59:23.540Z,9.399
2023-04-07T12:00:24.092Z,10.39
2023-04-07T12:01:22.810Z,9.5
2023-04-07T12:02:24.048Z,9.199
2023-04-07T12:03:23.212Z,9.699
2023-04-07T12:04:23.150Z,8.800
2023-04-07T12:05:23.768Z,9.300
2023-04-07T12:06:23.920Z,10.10
2023-04-07T12:07:23.621Z,10.69
2023-04-07T12:08:24.226Z,9.399
2023-04-07T12:09:23.296Z,12.60
2023-04-07T12:10:37.967Z,9.899
2023-04-07T12:11:24.229Z,10.10
2023-04-07T12:12:23.864Z,9.199
2023-04-07T12:14:23.694Z,9.699
2023-04-07T12:15:23.613Z,11.39
2023-04-07T12:16:23.582Z,10.69
2023-04-07T12:17:24.071Z,9.199
2023-04-07T12:18:23.944Z,10.80
2023-04-07T12:20:23.753Z,13.69
2023-04-07T12:21:23.634Z,10.80
2023-04-07T12:22:23.690Z,11.60
2023-04-07T12:23:23.709Z,10.5
2023-04-07T12:24:24.012Z,11.39
2023-04-07T12:25:24.277Z,10.5
2023-04-07T12:26:23.925Z,13
2023-04-07T12:27:35.842Z,12.5
2023-04-07T12:28:23.950Z,13.10
2023-04-07T12:29:23.867Z,11.69
2023-04-07T12:30:23.991Z,12.19
2023-04-07T12:31:23.404Z,11.39
2023-04-07T12:32:23.573Z,12.5
2023-04-07T12:33:22.979Z,11.60
2023-04-07T12:34:24.148Z,12.10
2023-04-07T12:35:23.702Z,12.89
2023-04-07T12:36:24.079Z,12.69
2023-04-07T12:37:23.325Z,11.10
2023-04-07T12:38:23.413Z,12.39
2023-04-07T12:39:23.969Z,12.69
2023-04-07T12:40:23.673Z,12.60
2023-04-07T12:41:23.894Z,12.30
2023-04-07T12:43:26.892Z,11.10
2023-04-07T12:44:23.966Z,12
2023-04-07T12:45:23.908Z,12.19
2023-04-07T12:46:24.129Z,11.89
2023-04-07T12:47:23.523Z,13.10
2023-04-07T12:48:23.395Z,12.39
2023-04-07T12:50:24.100Z,12.80
2023-04-07T12:51:23.149Z,13.30
2023-04-07T12:52:23.089Z,12
2023-04-07T12:53:23.220Z,11.30
2023-04-07T12:54:23.519Z,11.69
2023-04-07T12:55:23.688Z,11.30
2023-04-07T12:56:23.535Z,11.19
2023-04-07T12:57:23.546Z,10.89
2023-04-07T12:58:23.694Z,10.60
2023-04-07T12:59:23.587Z,10.30
2023-04-07T13:01:27.646Z,10.80
2023-04-07T13:02:24.211Z,10.60
2023-04-07T13:03:23.677Z,10.10
2023-04-07T13:05:23.512Z,11.19
2023-04-07T13:06:23.845Z,10.39
2023-04-07T13:07:23.528Z,12
2023-04-07T13:08:23.286Z,10.5
2023-04-07T13:09:23.562Z,12.60
2023-04-07T13:10:23.766Z,9.899
2023-04-07T13:11:23.746Z,10.60
2023-04-07T13:12:23.647Z,10
2023-04-07T13:13:23.489Z,10.19
2023-04-07T13:14:23.358Z,11
2023-04-07T13:15:23.691Z,10.19
2023-04-07T13:16:23.807Z,10.60
2023-04-07T13:17:23.880Z,10.5
2023-04-07T13:18:23.827Z,12
2023-04-07T13:19:23.704Z,9.5
2023-04-07T13:20:24.078Z,13.80
2023-04-07T13:21:42.970Z,11.89
2023-04-07T13:22:24.694Z,10.60
2023-04-07T13:23:23.185Z,12.60
2023-04-07T13:24:24.167Z,10.19
2023-04-07T13:25:23.568Z,10.89
2023-04-07T13:26:23.310Z,11.60
2023-04-07T13:27:23.582Z,10.89
2023-04-07T13:28:23.786Z,12.19
2023-04-07T13:29:23.924Z,11.19
2023-04-07T13:30:24.098Z,11
2023-04-07T13:31:23.228Z,11.89
2023-04-07T13:32:23.796Z,11.19
2023-04-07T13:33:23.896Z,12.80
2023-04-07T13:34:23.646Z,9.399
2023-04-07T13:35:23.724Z,10.39
2023-04-07T13:36:23.997Z,13.60
2023-04-07T13:37:23.572Z,12.60
2023-04-07T13:38:23.315Z,11.10
2023-04-07T13:39:23.406Z,10
2023-04-07T13:40:24.121Z,9.899
2023-04-07T13:41:23.835Z,11.19
2023-04-07T13:42:23.730Z,9.600